createdAt,value
2019-02-05T00:00:46.444Z,9.50
2019-02-05T00:03:17.403Z,10.07
2019-02-05T00:05:46.716Z,9.17
2019-02-05T00:08:15.998Z,9.03
2019-02-05T00:10:45.306Z,9.13
2019-02-05T00:13:14.870Z,9.67
2019-02-05T00:15:44.167Z,9.37
2019-02-05T00:18:13.471Z,9.57
2019-02-05T00:20:42.787Z,10.10
2019-02-05T00:23:12.106Z,9.73
2019-02-05T00:25:41.402Z,10.27
2019-02-05T00:28:11.089Z,9.83
2019-02-05T00:30:40.377Z,9.40
2019-02-05T00:33:09.749Z,10.57
2019-02-05T00:35:39.079Z,10.20
2019-02-05T00:38:08.397Z,10.30
2019-02-05T00:40:37.715Z,10.23
2019-02-05T00:43:07.515Z,10.40
2019-02-05T00:45:36.814Z,9.50
2019-02-05T00:48:06.182Z,10.77
2019-02-05T00:50:35.473Z,10.70
2019-02-05T00:53:04.948Z,11.40
2019-02-05T00:55:34.303Z,10.67
2019-02-05T00:58:04.003Z,11.40
2019-02-05T01:00:34.225Z,11.40
2019-02-05T01:03:04.476Z,11.87
2019-02-05T01:05:33.834Z,11.40
2019-02-05T01:08:03.410Z,12.07
2019-02-05T01:10:33.776Z,11.67
2019-02-05T01:13:03.110Z,12.20
2019-02-05T01:15:32.411Z,13.17
2019-02-05T01:18:01.885Z,11.40
2019-02-05T01:20:32.145Z,12.43
2019-02-05T01:23:01.463Z,13.37
2019-02-05T01:25:31.134Z,12.80
2019-02-05T01:28:00.437Z,12.77
2019-02-05T01:30:29.750Z,12.73
2019-02-05T01:32:59.056Z,13.10
2019-02-05T01:35:28.351Z,12.70
2019-02-05T01:37:57.674Z,12.73
2019-02-05T01:40:27.701Z,12.60
2019-02-05T01:42:57.078Z,13.73
2019-02-05T01:45:26.538Z,13.97
2019-02-05T01:47:55.842Z,13.83
2019-02-05T01:50:26.697Z,14.23
2019-02-05T01:52:56.167Z,13.53
2019-02-05T01:55:25.547Z,13.63
2019-02-05T01:57:54.864Z,12.77
2019-02-05T02:00:30.838Z,13.47
2019-02-05T02:03:00.439Z,14.47
2019-02-05T02:05:29.727Z,14.43
2019-02-05T02:07:59.579Z,14.63
2019-02-05T02:10:30.186Z,14.13
2019-02-05T02:12:59.571Z,15.80
2019-02-05T02:15:29.203Z,15.17
2019-02-05T02:17:58.521Z,14.97
2019-02-05T02:20:27.975Z,14.40
2019-02-05T02:22:57.781Z,15.20
2019-02-05T02:25:27.077Z,15.23
2019-02-05T02:27:56.442Z,15.47
2019-02-05T02:30:31.410Z,15.00
2019-02-05T02:33:00.714Z,14.70
2019-02-05T02:35:30.018Z,14.10
2019-02-05T02:37:59.320Z,14.73
2019-02-05T02:40:28.616Z,14.77
2019-02-05T02:42:57.926Z,15.13
2019-02-05T02:45:27.231Z,15.07
2019-02-05T02:47:56.551Z,14.27
2019-02-05T02:50:25.844Z,14.00
2019-02-05T02:52:55.145Z,14.43
2019-02-05T02:55:24.458Z,14.80
2019-02-05T02:57:53.755Z,15.50
2019-02-05T03:00:23.339Z,14.03
2019-02-05T03:02:52.637Z,14.73
2019-02-05T03:05:24.392Z,14.70
2019-02-05T03:07:54.045Z,14.60
2019-02-05T03:10:26.125Z,14.93
2019-02-05T03:12:55.751Z,13.83
2019-02-05T03:15:25.397Z,14.47
2019-02-05T03:17:54.784Z,14.53
2019-02-05T03:20:24.166Z,14.90
2019-02-05T03:22:53.935Z,14.83
2019-02-05T03:25:24.985Z,16.73
2019-02-05T03:27:54.865Z,15.00
2019-02-05T03:30:25.284Z,14.60
2019-02-05T03:32:56.283Z,14.83
2019-02-05T03:35:26.782Z,15.40
2019-02-05T03:37:56.550Z,15.27
2019-02-05T03:40:31.690Z,16.60
2019-02-05T03:43:01.128Z,16.80
2019-02-05T03:45:31.570Z,16.10
2019-02-05T03:48:04.646Z,16.70
2019-02-05T03:50:37.022Z,16.03
2019-02-05T03:53:26.298Z,16.17
2019-02-05T03:55:58.685Z,16.13
2019-02-05T03:58:36.626Z,16.77
2019-02-05T04:01:18.400Z,17.20
2019-02-05T04:04:13.488Z,17.07
2019-02-05T04:06:45.935Z,17.07
2019-02-05T04:09:32.885Z,16.80
2019-02-05T04:12:17.115Z,16.93
2019-02-05T04:15:07.650Z,17.53
2019-02-05T04:17:48.739Z,17.40
2019-02-05T04:20:38.947Z,18.13
2019-02-05T04:23:29.576Z,16.67
2019-02-05T04:26:07.624Z,16.83
2019-02-05T04:28:57.967Z,17.60
2019-02-05T04:31:51.189Z,17.27
2019-02-05T04:34:48.982Z,17.27
2019-02-05T04:37:41.974Z,16.97
2019-02-05T04:40:23.859Z,16.87
2019-02-05T04:42:56.227Z,17.60
2019-02-05T04:45:34.062Z,18.37
2019-02-05T04:48:21.909Z,17.47
2019-02-05T04:51:02.631Z,18.20
2019-02-05T04:53:46.718Z,18.00
2019-02-05T04:56:35.834Z,17.37
2019-02-05T04:59:32.220Z,18.33
2019-02-05T05:02:13.791Z,17.93
2019-02-05T05:04:51.946Z,18.23
2019-02-05T05:07:33.225Z,18.43
2019-02-05T05:10:02.708Z,17.37
2019-02-05T05:12:32.100Z,19.50
2019-02-05T05:15:01.461Z,18.40
2019-02-05T05:17:31.017Z,19.40
2019-02-05T05:20:00.510Z,18.47
2019-02-05T05:22:30.283Z,17.87
2019-02-05T05:24:59.623Z,18.83
2019-02-05T05:27:29.202Z,19.17
2019-02-05T05:29:58.668Z,17.80
2019-02-05T05:32:28.353Z,19.23
2019-02-05T05:34:57.742Z,19.07
2019-02-05T05:37:27.097Z,18.50
2019-02-05T05:39:56.453Z,20.03
2019-02-05T05:42:27.327Z,18.30
2019-02-05T05:44:56.628Z,18.97
2019-02-05T05:47:26.008Z,20.23
2019-02-05T05:49:55.671Z,19.33
2019-02-05T05:52:24.979Z,19.27
2019-02-05T05:54:54.351Z,19.70
2019-02-05T05:57:24.702Z,20.27
2019-02-05T05:59:54.043Z,18.50
2019-02-05T06:02:23.440Z,19.77
2019-02-05T06:04:52.735Z,18.93
2019-02-05T06:07:22.039Z,18.93
2019-02-05T06:09:51.343Z,20.13
2019-02-05T06:12:20.635Z,20.30
2019-02-05T06:14:50.228Z,19.87
2019-02-05T06:17:19.627Z,19.60
2019-02-05T06:19:48.975Z,18.73
2019-02-05T06:22:18.341Z,19.17
2019-02-05T06:24:47.648Z,18.17
2019-02-05T06:27:16.941Z,18.77
2019-02-05T06:29:46.631Z,19.20
2019-02-05T06:32:15.938Z,19.30
2019-02-05T06:34:45.519Z,19.90
2019-02-05T06:37:14.882Z,20.47
2019-02-05T06:39:44.186Z,19.70
2019-02-05T06:42:13.558Z,19.50
2019-02-05T06:44:42.868Z,19.97
2019-02-05T06:47:12.318Z,20.97
2019-02-05T06:49:41.760Z,20.17
2019-02-05T06:52:11.151Z,19.33
2019-02-05T06:54:40.470Z,20.17
2019-02-05T06:57:09.762Z,19.17
2019-02-05T06:59:39.066Z,19.97
2019-02-05T07:02:09.481Z,20.77
2019-02-05T07:04:38.920Z,22.10
2019-02-05T07:07:08.567Z,20.77
2019-02-05T07:09:37.874Z,20.47
2019-02-05T07:12:07.352Z,19.97
2019-02-05T07:14:37.654Z,19.47
2019-02-05T07:17:07.526Z,19.23
2019-02-05T07:19:36.832Z,19.83
2019-02-05T07:22:06.267Z,20.37
2019-02-05T07:24:35.783Z,21.93
2019-02-05T07:27:05.078Z,20.23
2019-02-05T07:29:34.549Z,21.73
2019-02-05T07:32:04.939Z,21.60
2019-02-05T07:34:34.306Z,21.50
2019-02-05T07:37:03.960Z,20.80
2019-02-05T07:39:33.399Z,20.60
2019-02-05T07:42:02.722Z,21.63
2019-02-05T07:44:32.101Z,20.63
2019-02-05T07:47:01.481Z,21.50
2019-02-05T07:49:30.846Z,20.77
2019-02-05T07:52:00.426Z,21.50
2019-02-05T07:54:29.746Z,20.60
2019-02-05T07:56:59.113Z,21.10
2019-02-05T07:59:28.416Z,21.73
2019-02-05T08:01:57.750Z,21.23
2019-02-05T08:04:27.053Z,20.90
2019-02-05T08:06:56.438Z,21.43
2019-02-05T08:09:26.091Z,22.23
2019-02-05T08:11:55.400Z,21.27
2019-02-05T08:14:24.873Z,21.60
2019-02-05T08:16:54.242Z,20.93
2019-02-05T08:19:23.554Z,20.60
2019-02-05T08:21:52.927Z,21.70
2019-02-05T08:24:22.218Z,22.83
2019-02-05T08:26:52.006Z,22.43
2019-02-05T08:29:21.936Z,20.50
2019-02-05T08:31:51.404Z,20.30
2019-02-05T08:34:20.782Z,20.43
2019-02-05T08:36:50.162Z,20.30
2019-02-05T08:39:19.466Z,19.63
2019-02-05T08:41:48.768Z,21.07
2019-02-05T08:44:18.437Z,21.33
2019-02-05T08:46:47.743Z,20.03
2019-02-05T08:49:17.046Z,19.67
2019-02-05T08:51:46.346Z,20.40
2019-02-05T08:54:17.407Z,20.40
2019-02-05T08:56:46.828Z,21.33
2019-02-05T08:59:16.498Z,19.67
2019-02-05T09:01:45.800Z,20.27
2019-02-05T09:04:15.178Z,19.50
2019-02-05T09:06:44.623Z,17.93
2019-02-05T09:09:13.935Z,20.33
2019-02-05T09:11:43.375Z,20.43
2019-02-05T09:14:13.091Z,20.00
2019-02-05T09:16:42.927Z,18.50
2019-02-05T09:19:12.231Z,19.83
2019-02-05T09:21:41.630Z,18.30
2019-02-05T09:24:11.062Z,19.03
2019-02-05T09:26:40.430Z,18.57
2019-02-05T09:29:09.816Z,17.53
2019-02-05T09:31:39.190Z,19.53
2019-02-05T09:34:08.499Z,18.70
2019-02-05T09:36:37.790Z,18.23
2019-02-05T09:39:07.675Z,17.83
2019-02-05T09:41:37.438Z,17.97
2019-02-05T09:44:06.752Z,19.10
2019-02-05T09:46:36.119Z,18.57
2019-02-05T09:49:05.800Z,17.83
2019-02-05T09:51:35.170Z,18.80
2019-02-05T09:54:04.736Z,17.33
2019-02-05T09:56:34.099Z,18.17
2019-02-05T09:59:03.501Z,16.80
2019-02-05T10:01:32.869Z,16.63
2019-02-05T10:04:02.249Z,17.97
2019-02-05T10:06:31.639Z,16.87
2019-02-05T10:09:00.964Z,16.67
2019-02-05T10:11:31.930Z,17.50
2019-02-05T10:14:01.321Z,16.00
2019-02-05T10:16:30.685Z,15.30
2019-02-05T10:19:00.067Z,17.03
2019-02-05T10:21:29.643Z,17.53
2019-02-05T10:23:58.951Z,19.13
2019-02-05T10:26:28.329Z,17.00
2019-02-05T10:28:57.627Z,18.17
2019-02-05T10:31:26.925Z,18.53
2019-02-05T10:33:56.238Z,18.97
2019-02-05T10:36:26.562Z,19.63
2019-02-05T10:38:57.015Z,18.77
2019-02-05T10:41:26.322Z,18.73
2019-02-05T10:43:55.705Z,18.23
2019-02-05T10:46:25.147Z,17.60
2019-02-05T10:48:54.462Z,16.27
2019-02-05T10:51:23.839Z,16.33
2019-02-05T10:53:53.231Z,16.83
2019-02-05T10:56:22.539Z,17.03
2019-02-05T10:58:51.837Z,17.53
2019-02-05T11:01:21.218Z,17.03
2019-02-05T11:03:50.522Z,16.73
2019-02-05T11:06:20.232Z,17.07
2019-02-05T11:08:49.676Z,22.10
2019-02-05T11:11:19.132Z,18.20
2019-02-05T11:13:48.422Z,16.23
2019-02-05T11:16:17.731Z,16.40
2019-02-05T11:18:47.126Z,15.73
2019-02-05T11:21:16.509Z,15.53
2019-02-05T11:23:46.943Z,16.23
2019-02-05T11:26:16.726Z,16.80
2019-02-05T11:28:46.094Z,14.47
2019-02-05T11:31:15.418Z,14.37
2019-02-05T11:33:44.713Z,15.03
2019-02-05T11:36:14.030Z,15.43
2019-02-05T11:38:43.335Z,15.30
2019-02-05T11:41:13.746Z,14.37
2019-02-05T11:43:43.219Z,14.87
2019-02-05T11:46:12.522Z,15.70
2019-02-05T11:48:41.818Z,14.47
2019-02-05T11:51:11.226Z,14.40
2019-02-05T11:53:40.571Z,15.30
2019-02-05T11:56:09.954Z,14.97
2019-02-05T11:58:39.625Z,13.00
2019-02-05T12:01:10.476Z,14.20
2019-02-05T12:03:39.845Z,13.80
2019-02-05T12:06:09.248Z,14.47
2019-02-05T12:08:38.618Z,13.77
2019-02-05T12:11:07.987Z,14.83
2019-02-05T12:13:37.320Z,14.23
2019-02-05T12:16:07.050Z,16.10
2019-02-05T12:18:36.473Z,15.10
2019-02-05T12:21:05.858Z,15.67
2019-02-05T12:23:35.243Z,13.40
2019-02-05T12:26:04.608Z,14.40
2019-02-05T12:28:33.928Z,13.83
2019-02-05T12:31:03.282Z,13.47
2019-02-05T12:33:32.587Z,12.97
2019-02-05T12:36:01.896Z,14.50
2019-02-05T12:38:31.195Z,13.30
2019-02-05T12:41:00.487Z,14.37
2019-02-05T12:43:29.810Z,14.17
2019-02-05T12:45:59.127Z,14.37
2019-02-05T12:48:28.738Z,14.40
2019-02-05T12:50:58.047Z,14.80
2019-02-05T12:53:27.431Z,13.90
2019-02-05T12:55:56.810Z,13.97
2019-02-05T12:58:26.120Z,13.43
2019-02-05T13:01:01.273Z,13.80
2019-02-05T13:03:26.761Z,13.13
2019-02-05T13:05:56.062Z,14.17
2019-02-05T13:08:25.371Z,12.73
2019-02-05T13:10:54.663Z,12.23
2019-02-05T13:13:23.991Z,11.80
2019-02-05T13:15:53.307Z,11.83
2019-02-05T13:18:23.070Z,11.27
2019-02-05T13:20:52.510Z,11.73
2019-02-05T13:23:21.820Z,16.63
2019-02-05T13:25:51.131Z,12.83
2019-02-05T13:28:20.560Z,11.83
2019-02-05T13:30:50.550Z,12.50
2019-02-05T13:33:19.920Z,11.23
2019-02-05T13:35:49.886Z,11.70
2019-02-05T13:38:19.188Z,11.40
2019-02-05T13:40:48.531Z,13.03
2019-02-05T13:43:17.831Z,11.73
2019-02-05T13:45:47.487Z,11.53
2019-02-05T13:48:16.793Z,11.23
2019-02-05T13:50:46.102Z,11.77
2019-02-05T13:53:15.506Z,12.43
2019-02-05T13:55:45.536Z,11.30
2019-02-05T13:58:15.130Z,11.77
2019-02-05T14:00:50.199Z,11.23
2019-02-05T14:03:19.586Z,12.07
2019-02-05T14:05:49.318Z,10.97
2019-02-05T14:08:18.811Z,12.40
2019-02-05T14:10:48.280Z,11.33
2019-02-05T14:13:17.751Z,12.27
2019-02-05T14:15:49.656Z,11.23
2019-02-05T14:18:21.947Z,11.27
2019-02-05T14:20:50.158Z,12.33
2019-02-05T14:23:19.488Z,12.40
2019-02-05T14:25:48.795Z,12.87
2019-02-05T14:28:18.081Z,12.90
2019-02-05T14:30:50.475Z,13.00
2019-02-05T14:33:21.318Z,12.83
2019-02-05T14:35:50.623Z,14.10
2019-02-05T14:38:19.932Z,13.13
2019-02-05T14:40:49.295Z,12.23
2019-02-05T14:43:18.706Z,12.90
2019-02-05T14:45:48.021Z,13.37
2019-02-05T14:48:17.464Z,12.53
2019-02-05T14:50:47.899Z,12.20
2019-02-05T14:53:17.211Z,13.33
2019-02-05T14:55:46.510Z,12.93
2019-02-05T14:58:15.867Z,12.73
2019-02-05T15:00:45.194Z,12.17
2019-02-05T15:03:14.818Z,12.27
2019-02-05T15:05:44.302Z,13.73
2019-02-05T15:08:14.030Z,13.33
2019-02-05T15:10:43.341Z,12.43
2019-02-05T15:13:15.897Z,12.50
2019-02-05T15:15:44.186Z,13.20
2019-02-05T15:18:13.555Z,13.53
2019-02-05T15:20:45.469Z,12.07
2019-02-05T15:23:15.730Z,12.73
2019-02-05T15:25:47.186Z,12.87
2019-02-05T15:28:16.335Z,14.57
2019-02-05T15:30:45.703Z,13.53
2019-02-05T15:33:18.096Z,13.57
2019-02-05T15:35:49.040Z,13.77
2019-02-05T15:38:18.350Z,14.10
2019-02-05T15:40:48.479Z,13.40
2019-02-05T15:43:18.035Z,15.17
2019-02-05T15:45:47.345Z,13.97
2019-02-05T15:48:17.795Z,13.10
2019-02-05T15:50:47.104Z,14.73
2019-02-05T15:53:16.577Z,14.37
2019-02-05T15:55:46.561Z,14.93
2019-02-05T15:58:15.844Z,14.60
2019-02-05T16:00:45.141Z,13.77
2019-02-05T16:03:14.473Z,15.57
2019-02-05T16:05:43.814Z,15.23
2019-02-05T16:08:13.228Z,16.60
2019-02-05T16:10:42.803Z,16.53
2019-02-05T16:13:12.126Z,15.77
2019-02-05T16:15:41.559Z,16.03
2019-02-05T16:18:10.883Z,15.07
2019-02-05T16:20:40.178Z,16.90
2019-02-05T16:23:09.500Z,16.53
2019-02-05T16:25:39.409Z,16.57
2019-02-05T16:28:08.947Z,16.27
2019-02-05T16:30:38.251Z,17.63
2019-02-05T16:33:07.725Z,18.43
2019-02-05T16:35:37.132Z,16.63
2019-02-05T16:38:06.666Z,15.77
2019-02-05T16:40:38.451Z,16.27
2019-02-05T16:43:08.004Z,16.83
2019-02-05T16:45:37.375Z,17.00
2019-02-05T16:48:06.754Z,16.47
2019-02-05T16:50:49.321Z,17.07
2019-02-05T16:53:18.915Z,17.87
2019-02-05T16:55:48.398Z,18.73
2019-02-05T16:58:17.867Z,19.13
2019-02-05T17:00:47.169Z,18.10
2019-02-05T17:03:16.474Z,19.87
2019-02-05T17:05:45.842Z,17.73
2019-02-05T17:08:15.150Z,19.53
2019-02-05T17:10:44.439Z,21.90
2019-02-05T17:13:13.745Z,19.63
2019-02-05T17:15:43.061Z,19.40
2019-02-05T17:18:22.936Z,20.50
2019-02-05T17:20:43.538Z,21.40
2019-02-05T17:23:12.841Z,20.57
2019-02-05T17:25:42.144Z,20.93
2019-02-05T17:28:11.638Z,22.43
2019-02-05T17:30:41.423Z,22.30
2019-02-05T17:33:10.729Z,22.33
2019-02-05T17:35:40.298Z,21.80
2019-02-05T17:38:10.159Z,23.10
2019-02-05T17:40:39.698Z,23.60
2019-02-05T17:43:09.021Z,23.77
2019-02-05T17:45:40.147Z,25.13
2019-02-05T17:48:12.648Z,24.47
2019-02-05T17:50:42.482Z,24.17
2019-02-05T17:53:11.847Z,23.80
2019-02-05T17:55:41.185Z,25.97
2019-02-05T17:58:11.492Z,24.10
2019-02-05T18:00:42.438Z,24.27
2019-02-05T18:03:11.738Z,22.97
2019-02-05T18:05:41.539Z,26.17
2019-02-05T18:08:11.023Z,25.10
2019-02-05T18:10:42.021Z,26.67
2019-02-05T18:13:11.513Z,26.30
2019-02-05T18:15:42.862Z,24.87
2019-02-05T18:18:12.334Z,26.17
2019-02-05T18:20:41.644Z,24.27
2019-02-05T18:23:10.931Z,25.83
2019-02-05T18:25:40.387Z,25.07
2019-02-05T18:28:09.960Z,26.00
2019-02-05T18:30:39.562Z,25.27
2019-02-05T18:33:08.859Z,26.43
2019-02-05T18:35:38.233Z,25.17
2019-02-05T18:38:15.870Z,23.77
2019-02-05T18:40:45.186Z,24.27
2019-02-05T18:43:15.575Z,25.97
2019-02-05T18:45:44.880Z,26.47
2019-02-05T18:48:14.178Z,25.60
2019-02-05T18:50:43.547Z,25.77
2019-02-05T18:53:12.842Z,24.23
2019-02-05T18:55:44.087Z,24.03
2019-02-05T18:58:13.398Z,23.83
2019-02-05T19:00:44.543Z,25.13
2019-02-05T19:03:15.942Z,26.47
2019-02-05T19:05:45.289Z,26.23
2019-02-05T19:08:16.552Z,25.90
2019-02-05T19:10:45.761Z,27.07
2019-02-05T19:13:15.056Z,26.87
2019-02-05T19:15:44.839Z,25.43
2019-02-05T19:18:14.203Z,25.97
2019-02-05T19:20:43.519Z,26.63
2019-02-05T19:23:12.823Z,23.53
2019-02-05T19:25:52.791Z,24.03
2019-02-05T19:28:29.909Z,24.10
2019-02-05T19:31:00.856Z,23.77
2019-02-05T19:33:30.154Z,25.63
2019-02-05T19:35:59.552Z,24.63
2019-02-05T19:38:28.910Z,25.53
2019-02-05T19:40:58.201Z,23.53
2019-02-05T19:43:27.563Z,24.90
2019-02-05T19:45:58.623Z,24.87
2019-02-05T19:48:29.655Z,25.43
2019-02-05T19:50:59.327Z,25.73
2019-02-05T19:53:28.630Z,27.13
2019-02-05T19:55:58.298Z,27.13
2019-02-05T19:58:27.603Z,27.30
2019-02-05T20:00:57.273Z,27.33
2019-02-05T20:03:38.036Z,26.63
2019-02-05T20:05:57.676Z,23.90
2019-02-05T20:08:27.020Z,25.93
2019-02-05T20:10:56.379Z,24.90
2019-02-05T20:13:25.703Z,25.57
2019-02-05T20:15:55.466Z,25.33
2019-02-05T20:18:24.774Z,25.30
2019-02-05T20:20:54.070Z,25.50
2019-02-05T20:23:23.381Z,26.57
2019-02-05T20:25:52.671Z,26.07
2019-02-05T20:28:21.979Z,26.57
2019-02-05T20:30:51.283Z,26.20
2019-02-05T20:33:20.666Z,25.00
2019-02-05T20:35:49.974Z,27.73
2019-02-05T20:38:19.342Z,26.53
2019-02-05T20:40:48.774Z,26.43
2019-02-05T20:43:18.183Z,27.73
2019-02-05T20:45:47.481Z,25.13
2019-02-05T20:48:17.168Z,25.83
2019-02-05T20:50:46.489Z,27.77
2019-02-05T20:53:15.840Z,26.87
2019-02-05T20:55:45.158Z,27.90
2019-02-05T20:58:14.525Z,27.03
2019-02-05T21:00:43.823Z,27.03
2019-02-05T21:03:13.148Z,26.73
2019-02-05T21:05:42.933Z,25.90
2019-02-05T21:08:12.234Z,27.53
2019-02-05T21:10:41.533Z,26.73
2019-02-05T21:13:10.931Z,27.37
2019-02-05T21:15:40.315Z,26.77
2019-02-05T21:18:09.619Z,27.10
2019-02-05T21:20:39.233Z,28.13
2019-02-05T21:23:08.613Z,28.40
2019-02-05T21:25:37.914Z,27.27
2019-02-05T21:28:07.361Z,28.13
2019-02-05T21:30:36.672Z,27.33
2019-02-05T21:33:05.988Z,28.93
2019-02-05T21:35:35.471Z,27.87
2019-02-05T21:38:04.903Z,29.47
2019-02-05T21:40:34.267Z,27.20
2019-02-05T21:43:03.562Z,27.00
2019-02-05T21:45:33.238Z,26.93
2019-02-05T21:48:02.541Z,29.27
2019-02-05T21:50:31.870Z,29.03
2019-02-05T21:53:01.640Z,27.87
2019-02-05T21:55:31.075Z,28.50
2019-02-05T21:58:00.366Z,29.80
2019-02-05T22:00:36.398Z,29.93
2019-02-05T22:03:06.911Z,28.97
2019-02-05T22:05:36.303Z,30.80
2019-02-05T22:08:08.624Z,27.97
2019-02-05T22:10:37.235Z,28.40
2019-02-05T22:13:07.293Z,28.53
2019-02-05T22:15:36.737Z,27.57
2019-02-05T22:18:06.282Z,27.47
2019-02-05T22:20:36.658Z,28.40
2019-02-05T22:23:06.431Z,27.87
2019-02-05T22:25:35.755Z,28.27
2019-02-05T22:28:05.463Z,28.33
2019-02-05T22:30:37.191Z,27.07
2019-02-05T22:33:09.311Z,29.23
2019-02-05T22:35:38.699Z,27.80
2019-02-05T22:38:08.080Z,28.10
2019-02-05T22:40:37.542Z,27.17
2019-02-05T22:43:07.233Z,29.07
2019-02-05T22:45:36.825Z,30.00
2019-02-05T22:48:27.333Z,27.33
2019-02-05T22:50:56.645Z,29.53
2019-02-05T22:53:26.770Z,29.03
2019-02-05T22:55:56.144Z,29.13
2019-02-05T22:58:25.975Z,28.97
2019-02-05T23:01:13.535Z,28.47
2019-02-05T23:03:45.867Z,29.43
2019-02-05T23:06:33.261Z,29.00
2019-02-05T23:09:11.615Z,29.97
2019-02-05T23:11:52.614Z,28.30
2019-02-05T23:14:22.078Z,27.37
2019-02-05T23:16:51.382Z,27.70
2019-02-05T23:19:21.360Z,29.83
2019-02-05T23:21:50.799Z,27.17
2019-02-05T23:24:20.087Z,28.10
2019-02-05T23:26:49.397Z,28.97
2019-02-05T23:29:18.711Z,29.00
2019-02-05T23:31:48.038Z,29.50
2019-02-05T23:34:17.926Z,28.60
2019-02-05T23:36:47.219Z,27.30
2019-02-05T23:39:16.512Z,27.37
2019-02-05T23:41:45.826Z,28.47
2019-02-05T23:44:15.120Z,27.93
2019-02-05T23:46:44.491Z,27.97
2019-02-05T23:49:14.173Z,26.20
2019-02-05T23:51:43.482Z,25.73
2019-02-05T23:54:12.853Z,26.87
2019-02-05T23:56:42.227Z,26.53
2019-02-05T23:59:11.522Z,27.40
